sensor_id;sensor_type;location;lat;lon;timestamp;pressure;altitude;pressure_sealevel;temperature;humidity
34297;BME280;20564;42.902;25.336;2023-06-26T00:01:09;96878.91;;;19.13;100.00
34297;BME280;20564;42.902;25.336;2023-06-26T00:03:36;96884.44;;;19.18;100.00
34297;BME280;20564;42.902;25.336;2023-06-26T00:06:03;96887.31;;;19.23;100.00
34297;BME280;20564;42.902;25.336;2023-06-26T00:08:30;96884.28;;;19.33;100.00
34297;BME280;20564;42.902;25.336;2023-06-26T00:10:59;96877.31;;;19.38;100.00
34297;BME280;20564;42.902;25.336;2023-06-26T00:13:27;96883.44;;;19.32;100.00
34297;BME280;20564;42.902;25.336;2023-06-26T00:15:54;96885.09;;;19.33;100.00
34297;BME280;20564;42.902;25.336;2023-06-26T00:18:21;96890.03;;;19.36;100.00
34297;BME280;20564;42.902;25.336;2023-06-26T00:20:50;96877.31;;;19.32;100.00
34297;BME280;20564;42.902;25.336;2023-06-26T00:23:17;96878.13;;;19.32;100.00
34297;BME280;20564;42.902;25.336;2023-06-26T00:25:45;96870.50;;;19.29;100.00
34297;BME280;20564;42.902;25.336;2023-06-26T00:28:16;96873.19;;;19.29;100.00
34297;BME280;20564;42.902;25.336;2023-06-26T00:30:44;96865.78;;;19.38;100.00
34297;BME280;20564;42.902;25.336;2023-06-26T00:33:11;96876.06;;;19.34;100.00
34297;BME280;20564;42.902;25.336;2023-06-26T00:35:41;96870.53;;;19.36;100.00
34297;BME280;20564;42.902;25.336;2023-06-26T00:38:09;96864.38;;;19.42;100.00
34297;BME280;20564;42.902;25.336;2023-06-26T00:40:37;96859.22;;;19.40;100.00
34297;BME280;20564;42.902;25.336;2023-06-26T00:43:05;96869.91;;;19.40;100.00
34297;BME280;20564;42.902;25.336;2023-06-26T00:45:33;96859.22;;;19.40;100.00
34297;BME280;20564;42.902;25.336;2023-06-26T00:48:10;96852.25;;;19.39;100.00
34297;BME280;20564;42.902;25.336;2023-06-26T00:50:39;96855.75;;;19.40;100.00
34297;BME280;20564;42.902;25.336;2023-06-26T00:53:09;96856.16;;;19.43;100.00
34297;BME280;20564;42.902;25.336;2023-06-26T00:55:37;96858.84;;;19.43;100.00
34297;BME280;20564;42.902;25.336;2023-06-26T00:58:05;96849.38;;;19.47;100.00
34297;BME280;20564;42.902;25.336;2023-06-26T01:00:32;96852.69;;;19.49;100.00
34297;BME280;20564;42.902;25.336;2023-06-26T01:03:00;96845.69;;;19.48;100.00
34297;BME280;20564;42.902;25.336;2023-06-26T01:05:28;96854.72;;;19.47;100.00
34297;BME280;20564;42.902;25.336;2023-06-26T01:07:57;96851.03;;;19.48;100.00
34297;BME280;20564;42.902;25.336;2023-06-26T01:10:25;96842.59;;;19.51;100.00
34297;BME280;20564;42.902;25.336;2023-06-26T01:12:56;96839.53;;;19.55;100.00
34297;BME280;20564;42.902;25.336;2023-06-26T01:15:24;96848.34;;;19.55;100.00
34297;BME280;20564;42.902;25.336;2023-06-26T01:17:52;96850.84;;;19.63;100.00
34297;BME280;20564;42.902;25.336;2023-06-26T01:20:20;96845.50;;;19.57;100.00
34297;BME280;20564;42.902;25.336;2023-06-26T01:22:56;96835.81;;;19.56;100.00
34297;BME280;20564;42.902;25.336;2023-06-26T01:27:55;96834.19;;;19.55;100.00
34297;BME280;20564;42.902;25.336;2023-06-26T01:30:23;96835.41;;;19.52;100.00
34297;BME280;20564;42.902;25.336;2023-06-26T01:32:53;96832.56;;;19.54;100.00
34297;BME280;20564;42.902;25.336;2023-06-26T01:35:20;96838.94;;;19.52;100.00
34297;BME280;20564;42.902;25.336;2023-06-26T01:37:48;96832.16;;;19.50;100.00
34297;BME280;20564;42.902;25.336;2023-06-26T01:40:16;96835.41;;;19.52;100.00
34297;BME280;20564;42.902;25.336;2023-06-26T01:42:43;96843.03;;;19.55;100.00
34297;BME280;20564;42.902;25.336;2023-06-26T01:45:29;96843.63;;;19.50;100.00
34297;BME280;20564;42.902;25.336;2023-06-26T01:47:59;96841.59;;;19.52;100.00
34297;BME280;20564;42.902;25.336;2023-06-26T01:50:28;96839.53;;;19.55;100.00
34297;BME280;20564;42.902;25.336;2023-06-26T01:53:02;96847.34;;;19.49;100.00
34297;BME280;20564;42.902;25.336;2023-06-26T01:58:00;96849.00;;;19.57;100.00
34297;BME280;20564;42.902;25.336;2023-06-26T02:00:28;96842.41;;;19.53;100.00
34297;BME280;20564;42.902;25.336;2023-06-26T02:02:56;96849.78;;;19.51;100.00
34297;BME280;20564;42.902;25.336;2023-06-26T02:05:24;96844.03;;;19.47;100.00
34297;BME280;20564;42.902;25.336;2023-06-26T02:07:51;96842.41;;;19.46;100.00
34297;BME280;20564;42.902;25.336;2023-06-26T02:10:19;96847.34;;;19.43;100.00
34297;BME280;20564;42.902;25.336;2023-06-26T02:12:46;96841.78;;;19.44;100.00
34297;BME280;20564;42.902;25.336;2023-06-26T02:15:13;96845.28;;;19.51;100.00
34297;BME280;20564;42.902;25.336;2023-06-26T02:17:39;96843.44;;;19.45;100.00
34297;BME280;20564;42.902;25.336;2023-06-26T02:20:07;96840.16;;;19.50;100.00
34297;BME280;20564;42.902;25.336;2023-06-26T02:22:37;96835.63;;;19.50;100.00
34297;BME280;20564;42.902;25.336;2023-06-26T02:25:04;96833.78;;;19.51;100.00
34297;BME280;20564;42.902;25.336;2023-06-26T02:27:31;96832.16;;;19.50;100.00
34297;BME280;20564;42.902;25.336;2023-06-26T02:29:57;96836.25;;;19.52;100.00
34297;BME280;20564;42.902;25.336;2023-06-26T02:32:24;96830.69;;;19.47;100.00
34297;BME280;20564;42.902;25.336;2023-06-26T02:34:51;96835.41;;;19.52;100.00
34297;BME280;20564;42.902;25.336;2023-06-26T02:37:21;96835.00;;;19.55;100.00
34297;BME280;20564;42.902;25.336;2023-06-26T02:39:48;96836.47;;;19.58;100.00
34297;BME280;20564;42.902;25.336;2023-06-26T02:42:14;96834.59;;;19.51;100.00
34297;BME280;20564;42.902;25.336;2023-06-26T02:44:41;96847.75;;;19.46;100.00
34297;BME280;20564;42.902;25.336;2023-06-26T02:47:08;96839.34;;;19.43;100.00
34297;BME280;20564;42.902;25.336;2023-06-26T02:49:35;96844.84;;;19.41;100.00
34297;BME280;20564;42.902;25.336;2023-06-26T02:52:02;96832.94;;;19.37;100.00
34297;BME280;20564;42.902;25.336;2023-06-26T02:54:28;96836.66;;;19.36;100.00
34297;BME280;20564;42.902;25.336;2023-06-26T03:04:02;96840.16;;;19.43;100.00
34297;BME280;20564;42.902;25.336;2023-06-26T03:24:52;96856.78;;;19.45;100.00
34297;BME280;20564;42.902;25.336;2023-06-26T03:30:36;96855.13;;;19.44;100.00
34297;BME280;20564;42.902;25.336;2023-06-26T03:33:04;96856.34;;;19.48;100.00
34297;BME280;20564;42.902;25.336;2023-06-26T03:35:39;96858.03;;;19.49;100.00
34297;BME280;20564;42.902;25.336;2023-06-26T03:38:07;96855.94;;;19.51;100.00
34297;BME280;20564;42.902;25.336;2023-06-26T03:40:35;96852.69;;;19.49;100.00
34297;BME280;20564;42.902;25.336;2023-06-26T03:43:02;96852.88;;;19.55;100.00
34297;BME280;20564;42.902;25.336;2023-06-26T03:45:29;96853.50;;;19.57;100.00
34297;BME280;20564;42.902;25.336;2023-06-26T03:47:56;96852.28;;;19.66;100.00
34297;BME280;20564;42.902;25.336;2023-06-26T03:50:22;96850.03;;;19.69;100.00
34297;BME280;20564;42.902;25.336;2023-06-26T03:52:50;96849.84;;;19.71;100.00
34297;BME280;20564;42.902;25.336;2023-06-26T03:55:19;96846.97;;;19.72;100.00
34297;BME280;20564;42.902;25.336;2023-06-26T03:57:45;96844.50;;;19.71;100.00
34297;BME280;20564;42.902;25.336;2023-06-26T04:00:12;96849.22;;;19.69;100.00
34297;BME280;20564;42.902;25.336;2023-06-26T04:02:39;96842.84;;;19.70;100.00
34297;BME280;20564;42.902;25.336;2023-06-26T04:05:06;96838.72;;;19.74;100.00
34297;BME280;20564;42.902;25.336;2023-06-26T04:07:33;96845.50;;;19.70;100.00
34297;BME280;20564;42.902;25.336;2023-06-26T04:10:02;96837.50;;;19.70;100.00
34297;BME280;20564;42.902;25.336;2023-06-26T04:12:29;96842.84;;;19.70;100.00
34297;BME280;20564;42.902;25.336;2023-06-26T04:14:56;96842.63;;;19.78;100.00
34297;BME280;20564;42.902;25.336;2023-06-26T04:17:22;96839.53;;;19.81;100.00
34297;BME280;20564;42.902;25.336;2023-06-26T04:19:49;96853.13;;;19.86;100.00
34297;BME280;20564;42.902;25.336;2023-06-26T04:22:16;96850.22;;;19.88;100.00
34297;BME280;20564;42.902;25.336;2023-06-26T04:24:43;96855.78;;;19.93;100.00
34297;BME280;20564;42.902;25.336;2023-06-26T04:27:12;96847.97;;;19.98;100.00
34297;BME280;20564;42.902;25.336;2023-06-26T04:29:40;96843.22;;;20.07;100.00
34297;BME280;20564;42.902;25.336;2023-06-26T04:32:07;96845.22;;;20.18;100.00
34297;BME280;20564;42.902;25.336;2023-06-26T04:34:33;96852.66;;;20.16;100.00
34297;BME280;20564;42.902;25.336;2023-06-26T04:37:02;96849.16;;;20.22;100.00
34297;BME280;20564;42.902;25.336;2023-06-26T04:39:30;96851.84;;;20.22;100.00
34297;BME280;20564;42.902;25.336;2023-06-26T04:41:57;96855.09;;;20.24;100.00
34297;BME280;20564;42.902;25.336;2023-06-26T04:44:24;96855.28;;;20.29;100.00
34297;BME280;20564;42.902;25.336;2023-06-26T04:46:51;96853.41;;;20.36;100.00
34297;BME280;20564;42.902;25.336;2023-06-26T04:49:19;96865.97;;;20.29;100.00
34297;BME280;20564;42.902;25.336;2023-06-26T04:51:46;96864.16;;;20.23;100.00
34297;BME280;20564;42.902;25.336;2023-06-26T04:54:15;96866.81;;;20.23;100.00
34297;BME280;20564;42.902;25.336;2023-06-26T04:56:41;96865.78;;;20.24;100.00
34297;BME280;20564;42.902;25.336;2023-06-26T04:59:10;96864.97;;;20.23;100.00
34297;BME280;20564;42.902;25.336;2023-06-26T05:01:41;96870.72;;;20.27;100.00
34297;BME280;20564;42.902;25.336;2023-06-26T05:04:08;96879.34;;;20.29;100.00
34297;BME280;20564;42.902;25.336;2023-06-26T05:06:35;96881.81;;;20.31;100.00
34297;BME280;20564;42.902;25.336;2023-06-26T05:09:05;96876.25;;;20.32;100.00
34297;BME280;20564;42.902;25.336;2023-06-26T05:11:35;96887.56;;;20.28;100.00
34297;BME280;20564;42.902;25.336;2023-06-26T05:14:02;96884.69;;;20.29;100.00
34297;BME280;20564;42.902;25.336;2023-06-26T05:16:29;96890.25;;;20.21;100.00
34297;BME280;20564;42.902;25.336;2023-06-26T05:18:57;96883.91;;;20.22;100.00
34297;BME280;20564;42.902;25.336;2023-06-26T05:21:23;96884.91;;;20.21;100.00
34297;BME280;20564;42.902;25.336;2023-06-26T05:23:51;96887.16;;;20.24;100.00
34297;BME280;20564;42.902;25.336;2023-06-26T05:26:19;96884.50;;;20.17;100.00
34297;BME280;20564;42.902;25.336;2023-06-26T05:28:46;96886.34;;;20.17;100.00
34297;BME280;20564;42.902;25.336;2023-06-26T05:31:15;96893.78;;;20.15;100.00
34297;BME280;20564;42.902;25.336;2023-06-26T05:33:43;96889.66;;;20.12;100.00
34297;BME280;20564;42.902;25.336;2023-06-26T05:36:10;96892.13;;;20.07;100.00
34297;BME280;20564;42.902;25.336;2023-06-26T05:38:38;96890.47;;;20.06;100.00
34297;BME280;20564;42.902;25.336;2023-06-26T05:41:06;96899.72;;;20.10;100.00
34297;BME280;20564;42.902;25.336;2023-06-26T05:43:33;96901.16;;;20.13;100.00
34297;BME280;20564;42.902;25.336;2023-06-26T05:46:00;96896.22;;;20.10;100.00
34297;BME280;20564;42.902;25.336;2023-06-26T05:48:27;96892.97;;;20.08;100.00
34297;BME280;20564;42.902;25.336;2023-06-26T05:50:54;96901.16;;;19.99;100.00
34297;BME280;20564;42.902;25.336;2023-06-26T05:53:21;96893.38;;;20.05;100.00
34297;BME280;20564;42.902;25.336;2023-06-26T05:55:48;96903.66;;;20.08;100.00
34297;BME280;20564;42.902;25.336;2023-06-26T05:58:15;96899.53;;;20.12;100.00
34297;BME280;20564;42.902;25.336;2023-06-26T06:00:43;96890.88;;;20.16;100.00
34297;BME280;20564;42.902;25.336;2023-06-26T06:03:10;96900.13;;;20.20;100.00
34297;BME280;20564;42.902;25.336;2023-06-26T06:05:37;96907.50;;;20.25;100.00
34297;BME280;20564;42.902;25.336;2023-06-26T06:08:04;96900.53;;;20.31;100.00
34297;BME280;20564;42.902;25.336;2023-06-26T06:10:31;96899.06;;;20.35;100.00
34297;BME280;20564;42.902;25.336;2023-06-26T06:12:58;96899.47;;;20.38;100.00
34297;BME280;20564;42.902;25.336;2023-06-26T06:15:25;96897.63;;;20.39;100.00
34297;BME280;20564;42.902;25.336;2023-06-26T06:17:55;96902.16;;;20.38;100.00
34297;BME280;20564;42.902;25.336;2023-06-26T06:20:22;96905.25;;;20.35;100.00
34297;BME280;20564;42.902;25.336;2023-06-26T06:22:49;96895.78;;;20.33;100.00
34297;BME280;20564;42.902;25.336;2023-06-26T06:25:15;96901.16;;;20.26;100.00
34297;BME280;20564;42.902;25.336;2023-06-26T06:27:42;96907.31;;;20.20;100.00
34297;BME280;20564;42.902;25.336;2023-06-26T06:30:10;96907.72;;;20.17;100.00
34297;BME280;20564;42.902;25.336;2023-06-26T06:32:36;96914.72;;;20.18;100.00
34297;BME280;20564;42.902;25.336;2023-06-26T06:35:03;96905.47;;;20.14;100.00
34297;BME280;20564;42.902;25.336;2023-06-26T06:37:36;96909.38;;;20.24;100.00
34297;BME280;20564;42.902;25.336;2023-06-26T06:40:11;96908.56;;;20.24;100.00
34297;BME280;20564;42.902;25.336;2023-06-26T06:42:38;96905.06;;;20.17;100.00
34297;BME280;20564;42.902;25.336;2023-06-26T06:45:05;96911.22;;;20.17;100.00
34297;BME280;20564;42.902;25.336;2023-06-26T06:47:32;96911.44;;;20.16;100.00
34297;BME280;20564;42.902;25.336;2023-06-26T06:50:00;96912.03;;;20.18;100.00
34297;BME280;20564;42.902;25.336;2023-06-26T06:52:35;96914.94;;;20.23;100.00
34297;BME280;20564;42.902;25.336;2023-06-26T06:55:02;96908.13;;;20.27;100.00
34297;BME280;20564;42.902;25.336;2023-06-26T06:57:35;96909.53;;;20.36;100.00
34297;BME280;20564;42.902;25.336;2023-06-26T07:00:07;96908.91;;;20.47;100.00
34297;BME280;20564;42.902;25.336;2023-06-26T07:02:39;96906.44;;;20.59;100.00
34297;BME280;20564;42.902;25.336;2023-06-26T07:05:06;96904.53;;;20.73;100.00
34297;BME280;20564;42.902;25.336;2023-06-26T07:07:34;96899.59;;;20.77;100.00
34297;BME280;20564;42.902;25.336;2023-06-26T07:10:03;96908.00;;;20.80;100.00
34297;BME280;20564;42.902;25.336;2023-06-26T07:12:30;96902.25;;;20.83;100.00
34297;BME280;20564;42.902;25.336;2023-06-26T07:14:57;96909.03;;;20.86;100.00
34297;BME280;20564;42.902;25.336;2023-06-26T07:17:24;96906.75;;;20.89;100.00
34297;BME280;20564;42.902;25.336;2023-06-26T07:19:51;96913.28;;;21.00;100.00
34297;BME280;20564;42.902;25.336;2023-06-26T07:22:18;96913.28;;;21.00;100.00
34297;BME280;20564;42.902;25.336;2023-06-26T07:24:48;96915.75;;;20.95;100.00
34297;BME280;20564;42.902;25.336;2023-06-26T07:27:16;96909.19;;;20.91;100.00
34297;BME280;20564;42.902;25.336;2023-06-26T07:29:44;96918.06;;;20.91;100.00
34297;BME280;20564;42.902;25.336;2023-06-26T07:32:11;96916.00;;;20.93;100.00
34297;BME280;20564;42.902;25.336;2023-06-26T07:34:41;96916.66;;;20.82;100.00
34297;BME280;20564;42.902;25.336;2023-06-26T07:37:07;96920.78;;;20.78;100.00
34297;BME280;20564;42.902;25.336;2023-06-26T07:39:34;96928.19;;;20.69;100.00
34297;BME280;20564;42.902;25.336;2023-06-26T07:42:01;96936.88;;;20.65;100.00
34297;BME280;20564;42.902;25.336;2023-06-26T07:44:29;96926.19;;;20.58;100.00
34297;BME280;20564;42.902;25.336;2023-06-26T07:46:57;96934.00;;;20.60;100.00
34297;BME280;20564;42.902;25.336;2023-06-26T07:49:25;96934.00;;;20.46;100.00
34297;BME280;20564;42.902;25.336;2023-06-26T07:51:52;96933.19;;;20.33;100.00
34297;BME280;20564;42.902;25.336;2023-06-26T07:54:22;96941.84;;;20.28;100.00
34297;BME280;20564;42.902;25.336;2023-06-26T07:56:57;96945.56;;;20.34;100.00
34297;BME280;20564;42.902;25.336;2023-06-26T07:59:24;96940.63;;;20.31;100.00
34297;BME280;20564;42.902;25.336;2023-06-26T08:01:52;96946.78;;;20.31;100.00
34297;BME280;20564;42.902;25.336;2023-06-26T08:04:19;96948.00;;;20.35;100.00
34297;BME280;20564;42.902;25.336;2023-06-26T08:06:48;96947.19;;;20.28;100.00
34297;BME280;20564;42.902;25.336;2023-06-26T08:09:15;96948.81;;;20.29;100.00
34297;BME280;20564;42.902;25.336;2023-06-26T08:11:42;96955.44;;;20.33;100.00
34297;BME280;20564;42.902;25.336;2023-06-26T08:14:09;96951.72;;;20.41;100.00
34297;BME280;20564;42.902;25.336;2023-06-26T08:16:36;96951.69;;;20.47;100.00
34297;BME280;20564;42.902;25.336;2023-06-26T08:19:04;96950.66;;;20.62;100.00
34297;BME280;20564;42.902;25.336;2023-06-26T08:21:31;96944.88;;;20.78;100.00
34297;BME280;20564;42.902;25.336;2023-06-26T08:23:57;96950.00;;;20.80;100.00
34297;BME280;20564;42.902;25.336;2023-06-26T08:26:28;96953.28;;;20.88;100.00
34297;BME280;20564;42.902;25.336;2023-06-26T08:28:57;96958.56;;;21.02;100.00
34297;BME280;20564;42.902;25.336;2023-06-26T08:31:24;96954.81;;;21.09;100.00
34297;BME280;20564;42.902;25.336;2023-06-26T08:33:52;96950.72;;;21.13;100.00
34297;BME280;20564;42.902;25.336;2023-06-26T08:36:19;96953.34;;;21.20;100.00
34297;BME280;20564;42.902;25.336;2023-06-26T08:38:45;96955.59;;;21.23;100.00
34297;BME280;20564;42.902;25.336;2023-06-26T08:41:13;96957.66;;;21.21;100.00
34297;BME280;20564;42.902;25.336;2023-06-26T08:43:39;96965.25;;;21.24;100.00
34297;BME280;20564;42.902;25.336;2023-06-26T08:46:07;96960.53;;;21.19;100.00
34297;BME280;20564;42.902;25.336;2023-06-26T08:48:34;96960.16;;;21.09;100.00
34297;BME280;20564;42.902;25.336;2023-06-26T08:51:05;96963.91;;;21.02;100.00
34297;BME280;20564;42.902;25.336;2023-06-26T08:56:17;96968.06;;;20.91;100.00
34297;BME280;20564;42.902;25.336;2023-06-26T08:58:44;96967.44;;;20.95;100.00
34297;BME280;20564;42.902;25.336;2023-06-26T09:01:12;96963.91;;;21.02;100.00
34297;BME280;20564;42.902;25.336;2023-06-26T09:03:39;96956.50;;;21.04;100.00
34297;BME280;20564;42.902;25.336;2023-06-26T09:06:08;96958.94;;;21.12;100.00
34297;BME280;20564;42.902;25.336;2023-06-26T09:08:35;96956.44;;;21.17;100.00
34297;BME280;20564;42.902;25.336;2023-06-26T09:11:01;96953.72;;;21.24;100.00
34297;BME280;20564;42.902;25.336;2023-06-26T09:13:29;96955.13;;;21.39;100.00
34297;BME280;20564;42.902;25.336;2023-06-26T09:15:56;96948.72;;;21.47;100.00
34297;BME280;20564;42.902;25.336;2023-06-26T09:18:24;96949.72;;;21.46;100.00
34297;BME280;20564;42.902;25.336;2023-06-26T09:20:51;96945.38;;;21.52;100.00
34297;BME280;20564;42.902;25.336;2023-06-26T09:23:21;96947.13;;;21.64;100.00
34297;BME280;20564;42.902;25.336;2023-06-26T09:25:50;96939.41;;;21.81;100.00
34297;BME280;20564;42.902;25.336;2023-06-26T09:28:18;96937.84;;;21.99;100.00
34297;BME280;20564;42.902;25.336;2023-06-26T09:30:45;96940.16;;;22.20;100.00
34297;BME280;20564;42.902;25.336;2023-06-26T09:33:15;96938.34;;;22.57;100.00
34297;BME280;20564;42.902;25.336;2023-06-26T09:35:43;96937.34;;;22.95;100.00
34297;BME280;20564;42.902;25.336;2023-06-26T09:38:11;96939.31;;;23.37;100.00
34297;BME280;20564;42.902;25.336;2023-06-26T09:40:38;96957.13;;;23.61;100.00
34297;BME280;20564;42.902;25.336;2023-06-26T09:43:06;96940.16;;;23.91;96.49
34297;BME280;20564;42.902;25.336;2023-06-26T09:45:34;96939.72;;;23.94;97.56
34297;BME280;20564;42.902;25.336;2023-06-26T09:48:03;96946.16;;;24.04;95.90
34297;BME280;20564;42.902;25.336;2023-06-26T09:50:30;96943.63;;;24.10;97.31
34297;BME280;20564;42.902;25.336;2023-06-26T09:53:07;96940.78;;;24.16;98.25
34297;BME280;20564;42.902;25.336;2023-06-26T09:55:37;96942.91;;;24.38;98.87
34297;BME280;20564;42.902;25.336;2023-06-26T09:58:04;96946.13;;;24.46;96.19
34297;BME280;20564;42.902;25.336;2023-06-26T10:00:32;96945.59;;;24.38;94.46
34297;BME280;20564;42.902;25.336;2023-06-26T10:02:59;96943.72;;;24.26;96.73
34297;BME280;20564;42.902;25.336;2023-06-26T10:05:27;96945.00;;;24.24;97.38
34297;BME280;20564;42.902;25.336;2023-06-26T10:07:54;96936.47;;;24.15;93.11
34297;BME280;20564;42.902;25.336;2023-06-26T10:10:22;96934.13;;;24.07;91.83
34297;BME280;20564;42.902;25.336;2023-06-26T10:12:51;96939.06;;;24.22;92.76
34297;BME280;20564;42.902;25.336;2023-06-26T10:15:20;96936.25;;;24.28;95.01
34297;BME280;20564;42.902;25.336;2023-06-26T10:17:49;96930.28;;;24.38;94.60
34297;BME280;20564;42.902;25.336;2023-06-26T10:20:16;96929.72;;;24.48;95.64
34297;BME280;20564;42.902;25.336;2023-06-26T10:22:44;96933.13;;;24.55;93.49
34297;BME280;20564;42.902;25.336;2023-06-26T10:25:12;96928.91;;;24.59;93.85
34297;BME280;20564;42.902;25.336;2023-06-26T10:27:47;96927.94;;;24.77;91.34
34297;BME280;20564;42.902;25.336;2023-06-26T10:30:18;96915.81;;;25.03;85.72
34297;BME280;20564;42.902;25.336;2023-06-26T10:32:46;96915.59;;;25.16;90.54
34297;BME280;20564;42.902;25.336;2023-06-26T10:35:13;96919.03;;;25.29;89.19
34297;BME280;20564;42.902;25.336;2023-06-26T10:37:44;96922.41;;;25.64;93.35
34297;BME280;20564;42.902;25.336;2023-06-26T10:40:12;96912.97;;;25.95;87.08
34297;BME280;20564;42.902;25.336;2023-06-26T10:42:40;96916.25;;;26.14;87.79
34297;BME280;20564;42.902;25.336;2023-06-26T10:47:40;96903.88;;;26.52;83.67
34297;BME280;20564;42.902;25.336;2023-06-26T10:50:41;96897.56;;;26.47;80.42
34297;BME280;20564;42.902;25.336;2023-06-26T10:53:08;96899.88;;;26.55;79.53
34297;BME280;20564;42.902;25.336;2023-06-26T10:55:36;96892.19;;;26.68;79.04
34297;BME280;20564;42.902;25.336;2023-06-26T10:58:02;96891.06;;;26.86;79.25
34297;BME280;20564;42.902;25.336;2023-06-26T11:00:29;96890.63;;;26.94;79.31
34297;BME280;20564;42.902;25.336;2023-06-26T11:02:57;96878.59;;;27.02;76.58
34297;BME280;20564;42.902;25.336;2023-06-26T11:05:28;96876.94;;;27.01;73.18
34297;BME280;20564;42.902;25.336;2023-06-26T11:08:08;96878.97;;;26.89;74.62
34297;BME280;20564;42.902;25.336;2023-06-26T11:10:53;96871.19;;;26.71;76.24
34297;BME280;20564;42.902;25.336;2023-06-26T11:13:21;96877.22;;;26.78;78.52
34297;BME280;20564;42.902;25.336;2023-06-26T11:15:49;96876.59;;;27.14;80.08
34297;BME280;20564;42.902;25.336;2023-06-26T11:18:17;96872.00;;;27.15;75.16
34297;BME280;20564;42.902;25.336;2023-06-26T11:20:43;96876.13;;;27.23;76.13
34297;BME280;20564;42.902;25.336;2023-06-26T11:23:10;96868.13;;;27.33;75.62
34297;BME280;20564;42.902;25.336;2023-06-26T11:25:38;96869.56;;;27.40;75.29
34297;BME280;20564;42.902;25.336;2023-06-26T11:28:05;96871.06;;;27.58;72.64
34297;BME280;20564;42.902;25.336;2023-06-26T11:30:32;96863.09;;;27.74;72.44
34297;BME280;20564;42.902;25.336;2023-06-26T11:33:06;96863.72;;;27.81;69.79
34297;BME280;20564;42.902;25.336;2023-06-26T11:35:33;96864.69;;;27.70;72.39
34297;BME280;20564;42.902;25.336;2023-06-26T11:38:01;96861.28;;;27.79;72.33
34297;BME280;20564;42.902;25.336;2023-06-26T11:40:34;96857.28;;;27.87;70.49
34297;BME280;20564;42.902;25.336;2023-06-26T11:43:02;96860.53;;;27.89;67.24
34297;BME280;20564;42.902;25.336;2023-06-26T11:45:32;96862.81;;;28.02;65.52
34297;BME280;20564;42.902;25.336;2023-06-26T11:47:59;96867.00;;;28.20;65.56
34297;BME280;20564;42.902;25.336;2023-06-26T11:50:27;96851.47;;;28.48;65.19
34297;BME280;20564;42.902;25.336;2023-06-26T11:52:55;96848.03;;;28.63;64.46
34297;BME280;20564;42.902;25.336;2023-06-26T11:55:23;96850.91;;;28.98;61.78
34297;BME280;20564;42.902;25.336;2023-06-26T11:57:52;96843.78;;;28.87;60.82
34297;BME280;20564;42.902;25.336;2023-06-26T12:00:19;96842.66;;;28.68;62.05
34297;BME280;20564;42.902;25.336;2023-06-26T12:02:46;96857.69;;;28.48;64.92
34297;BME280;20564;42.902;25.336;2023-06-26T12:05:14;96849.84;;;28.47;60.51
34297;BME280;20564;42.902;25.336;2023-06-26T12:07:46;96847.25;;;28.25;62.27
34297;BME280;20564;42.902;25.336;2023-06-26T12:10:14;96852.38;;;28.21;64.20
34297;BME280;20564;42.902;25.336;2023-06-26T12:12:42;96847.97;;;28.10;64.56
34297;BME280;20564;42.902;25.336;2023-06-26T12:15:13;96847.59;;;27.96;64.77
34297;BME280;20564;42.902;25.336;2023-06-26T12:17:41;96844.75;;;27.76;63.84
34297;BME280;20564;42.902;25.336;2023-06-26T12:20:21;96852.19;;;27.63;66.12
34297;BME280;20564;42.902;25.336;2023-06-26T12:22:48;96861.31;;;27.25;65.08
34297;BME280;20564;42.902;25.336;2023-06-26T12:25:16;96859.28;;;26.93;69.95
34297;BME280;20564;42.902;25.336;2023-06-26T12:27:47;96868.53;;;26.76;73.29
34297;BME280;20564;42.902;25.336;2023-06-26T12:30:14;96865.41;;;26.45;74.58
34297;BME280;20564;42.902;25.336;2023-06-26T12:32:45;96881.09;;;26.09;78.45
34297;BME280;20564;42.902;25.336;2023-06-26T12:35:15;96873.38;;;25.67;84.21
34297;BME280;20564;42.902;25.336;2023-06-26T12:37:43;96864.81;;;25.25;87.26
34297;BME280;20564;42.902;25.336;2023-06-26T12:40:20;96868.34;;;24.85;88.18
34297;BME280;20564;42.902;25.336;2023-06-26T12:42:50;96873.19;;;24.60;93.84
34297;BME280;20564;42.902;25.336;2023-06-26T12:45:17;96882.66;;;24.39;94.28
34297;BME280;20564;42.902;25.336;2023-06-26T12:47:47;96877.91;;;24.29;97.17
34297;BME280;20564;42.902;25.336;2023-06-26T12:50:15;96878.00;;;24.22;98.67
34297;BME280;20564;42.902;25.336;2023-06-26T12:52:43;96879.19;;;24.26;99.39
34297;BME280;20564;42.902;25.336;2023-06-26T12:55:10;96883.63;;;24.21;100.00
34297;BME280;20564;42.902;25.336;2023-06-26T12:57:37;96879.09;;;24.10;100.00
34297;BME280;20564;42.902;25.336;2023-06-26T13:00:04;96884.09;;;24.06;99.74
34297;BME280;20564;42.902;25.336;2023-06-26T13:02:31;96882.13;;;24.25;100.00
34297;BME280;20564;42.902;25.336;2023-06-26T13:04:58;96884.59;;;24.50;96.79
34297;BME280;20564;42.902;25.336;2023-06-26T13:07:25;96879.16;;;24.73;93.83
34297;BME280;20564;42.902;25.336;2023-06-26T13:09:52;96884.34;;;24.92;88.60
34297;BME280;20564;42.902;25.336;2023-06-26T13:12:19;96884.44;;;24.97;94.59
34297;BME280;20564;42.902;25.336;2023-06-26T13:14:46;96887.59;;;25.06;97.24
34297;BME280;20564;42.902;25.336;2023-06-26T13:17:13;96884.41;;;25.20;95.12
34297;BME280;20564;42.902;25.336;2023-06-26T13:19:39;96893.69;;;25.13;90.64
34297;BME280;20564;42.902;25.336;2023-06-26T13:22:06;96900.50;;;24.92;91.33
34297;BME280;20564;42.902;25.336;2023-06-26T13:24:33;96912.03;;;24.75;92.57
34297;BME280;20564;42.902;25.336;2023-06-26T13:27:00;96914.16;;;24.62;96.83